createdAt,value
2023-06-03T00:01:00.654Z,95.50
2023-06-03T00:03:29.232Z,95.70
2023-06-03T00:05:58.854Z,95.80
2023-06-03T00:08:28.608Z,95.90
2023-06-03T00:10:56.651Z,96.00
2023-06-03T00:13:24.752Z,96.10
2023-06-03T00:15:52.801Z,96.20
2023-06-03T00:18:21.835Z,96.30
2023-06-03T00:20:49.985Z,96.40
2023-06-03T00:23:19.752Z,96.50
2023-06-03T00:25:47.926Z,96.80
2023-06-03T00:28:16.380Z,96.90
2023-06-03T00:30:44.484Z,97.10
2023-06-03T00:33:13.786Z,97.10
2023-06-03T00:35:42.024Z,97.30
2023-06-03T00:38:13.146Z,97.50
2023-06-03T00:40:42.646Z,97.60
2023-06-03T00:43:10.784Z,97.70
2023-06-03T00:45:39.070Z,97.80
2023-06-03T00:48:07.911Z,97.90
2023-06-03T00:50:36.828Z,98.00
2023-06-03T00:53:05.790Z,98.10
2023-06-03T00:55:35.598Z,98.20
2023-06-03T00:58:05.284Z,98.30
2023-06-03T01:00:33.462Z,98.40
2023-06-03T01:03:02.657Z,98.50
2023-06-03T01:05:31.275Z,98.40
2023-06-03T01:08:08.989Z,98.50
2023-06-03T01:10:47.475Z,98.70
2023-06-03T01:13:24.969Z,98.70
2023-06-03T01:15:56.415Z,98.70
2023-06-03T01:18:24.843Z,98.80
2023-06-03T01:20:54.530Z,99.00
2023-06-03T01:23:30.106Z,99.00
2023-06-03T01:25:59.118Z,99.10
2023-06-03T01:28:29.045Z,99.20
2023-06-03T01:30:58.120Z,99.20
2023-06-03T01:33:30.619Z,99.30
2023-06-03T01:36:01.678Z,99.40
2023-06-03T01:38:31.912Z,99.40
2023-06-03T01:41:03.641Z,99.50
2023-06-03T01:43:32.333Z,99.60
2023-06-03T01:46:01.008Z,99.70
2023-06-03T01:48:29.195Z,99.80
2023-06-03T01:50:59.061Z,99.90
2023-06-03T01:53:27.172Z,99.90
2023-06-03T01:55:56.923Z,99.90
2023-06-03T01:58:25.259Z,99.90
2023-06-03T02:00:53.472Z,99.90
2023-06-03T02:03:21.673Z,99.90
2023-06-03T02:05:49.752Z,99.90
2023-06-03T02:08:17.870Z,99.90
2023-06-03T02:10:47.378Z,99.90
2023-06-03T02:13:16.821Z,99.90
2023-06-03T02:15:44.790Z,99.90
2023-06-03T02:18:13.485Z,99.90
2023-06-03T02:20:41.632Z,99.90
2023-06-03T02:23:12.126Z,99.90
2023-06-03T02:25:41.111Z,99.90
2023-06-03T02:28:13.792Z,99.90
2023-06-03T02:30:43.192Z,99.90
2023-06-03T02:33:11.944Z,99.90
2023-06-03T02:35:40.098Z,99.90
2023-06-03T02:38:08.249Z,99.90
2023-06-03T02:40:36.785Z,99.90
2023-06-03T02:43:04.818Z,99.90
2023-06-03T02:45:32.957Z,99.90
2023-06-03T02:48:03.126Z,99.90
2023-06-03T02:50:31.783Z,99.90
2023-06-03T02:53:02.687Z,99.90
2023-06-03T02:55:34.731Z,99.90
2023-06-03T02:58:03.020Z,99.90
2023-06-03T03:00:32.223Z,99.90
2023-06-03T03:03:02.330Z,99.90
2023-06-03T03:05:33.810Z,99.90
2023-06-03T03:08:02.015Z,99.90
2023-06-03T03:10:30.168Z,99.90
2023-06-03T03:13:00.103Z,99.90
2023-06-03T03:15:29.189Z,99.90
2023-06-03T03:17:57.700Z,99.90
2023-06-03T03:20:30.208Z,99.90
2023-06-03T03:23:01.655Z,99.90
2023-06-03T03:25:30.024Z,99.90
2023-06-03T03:27:59.726Z,99.90
2023-06-03T03:30:28.477Z,99.90
2023-06-03T03:33:00.082Z,99.90
2023-06-03T03:35:28.882Z,99.90
2023-06-03T03:38:03.481Z,99.90
2023-06-03T03:40:33.807Z,99.90
2023-06-03T03:43:03.965Z,99.90
2023-06-03T03:45:36.215Z,99.90
2023-06-03T03:48:06.325Z,99.90
2023-06-03T03:50:45.426Z,99.90
2023-06-03T03:53:19.411Z,99.90
2023-06-03T03:55:49.805Z,99.90
2023-06-03T03:58:27.774Z,99.90
2023-06-03T04:01:02.507Z,99.90
2023-06-03T04:03:37.088Z,99.90
2023-06-03T04:06:06.391Z,99.90
2023-06-03T04:08:40.978Z,99.90
2023-06-03T04:11:11.252Z,99.90
2023-06-03T04:13:42.532Z,99.90
2023-06-03T04:16:13.845Z,99.90
2023-06-03T04:18:45.547Z,99.90
2023-06-03T04:21:21.264Z,99.90
2023-06-03T04:23:53.003Z,99.90
2023-06-03T04:26:24.969Z,99.90
2023-06-03T04:28:53.361Z,99.90
2023-06-03T04:31:21.496Z,99.90
2023-06-03T04:33:50.860Z,99.90
2023-06-03T04:36:19.061Z,99.90
2023-06-03T04:38:47.278Z,99.90
2023-06-03T04:41:18.233Z,99.90
2023-06-03T04:43:54.020Z,99.90
2023-06-03T04:46:22.563Z,99.90
2023-06-03T04:48:50.688Z,99.90
2023-06-03T04:51:18.741Z,99.90
2023-06-03T04:53:47.263Z,99.90
2023-06-03T04:56:15.476Z,99.90
2023-06-03T04:58:45.559Z,99.90
2023-06-03T05:01:22.477Z,99.90
2023-06-03T05:03:50.748Z,99.90
2023-06-03T05:06:21.149Z,99.90
2023-06-03T05:08:49.956Z,99.90
2023-06-03T05:11:19.991Z,99.90
2023-06-03T05:13:52.191Z,99.90
2023-06-03T05:16:20.812Z,99.90
2023-06-03T05:18:49.071Z,99.90
2023-06-03T05:21:20.372Z,99.90
2023-06-03T05:23:49.427Z,99.90
2023-06-03T05:26:18.880Z,99.90
2023-06-03T05:28:47.787Z,99.90
2023-06-03T05:31:17.410Z,99.90
2023-06-03T05:33:45.644Z,99.90
2023-06-03T05:36:18.084Z,99.90
2023-06-03T05:38:46.803Z,99.90
2023-06-03T05:41:17.049Z,99.90
2023-06-03T05:43:45.097Z,99.90
2023-06-03T05:46:13.301Z,99.90
2023-06-03T05:48:42.782Z,99.90
2023-06-03T05:51:11.626Z,99.90
2023-06-03T05:53:44.850Z,99.90
2023-06-03T05:56:15.031Z,99.90
2023-06-03T05:58:44.793Z,99.90
2023-06-03T06:01:13.175Z,99.90
2023-06-03T06:03:44.147Z,99.90
2023-06-03T06:06:14.005Z,99.90
2023-06-03T06:08:42.775Z,99.90
2023-06-03T06:11:11.302Z,99.90
2023-06-03T06:13:39.558Z,99.90
2023-06-03T06:16:08.574Z,99.90
2023-06-03T06:18:37.468Z,99.90
2023-06-03T06:21:07.861Z,99.90
2023-06-03T06:23:39.352Z,99.90
2023-06-03T06:26:07.909Z,99.90
2023-06-03T06:28:36.971Z,99.90
2023-06-03T06:31:12.919Z,99.90
2023-06-03T06:33:49.052Z,99.90
2023-06-03T06:36:32.104Z,99.90
2023-06-03T06:39:04.228Z,99.90
2023-06-03T06:41:40.506Z,99.90
2023-06-03T06:44:15.701Z,99.90
2023-06-03T06:46:44.521Z,99.90
2023-06-03T06:49:12.620Z,99.90
2023-06-03T06:51:44.096Z,99.90
2023-06-03T06:54:12.499Z,99.90
2023-06-03T06:56:41.951Z,99.90
2023-06-03T06:59:12.930Z,99.90
2023-06-03T07:01:42.484Z,99.90
2023-06-03T07:04:10.825Z,99.90
2023-06-03T07:06:38.909Z,99.90
2023-06-03T07:09:09.866Z,99.90
2023-06-03T07:11:46.741Z,99.70
2023-06-03T07:14:17.314Z,99.90
2023-06-03T07:16:47.446Z,99.60
2023-06-03T07:19:15.754Z,99.30
2023-06-03T07:21:48.322Z,99.90
2023-06-03T07:24:20.822Z,99.60
2023-06-03T07:26:51.746Z,99.70
2023-06-03T07:29:19.789Z,99.40
2023-06-03T07:31:49.115Z,99.60
2023-06-03T07:34:23.060Z,99.70
2023-06-03T07:36:53.386Z,99.80
2023-06-03T07:39:23.400Z,99.40
2023-06-03T07:41:58.988Z,99.70
2023-06-03T07:44:43.839Z,99.50
2023-06-03T07:47:14.941Z,98.80
2023-06-03T07:49:45.950Z,98.60
2023-06-03T07:52:18.112Z,99.20
2023-06-03T07:54:48.043Z,99.40
2023-06-03T07:57:17.058Z,99.20
2023-06-03T07:59:53.068Z,99.10
2023-06-03T08:02:21.266Z,99.20
2023-06-03T08:04:52.646Z,99.20
2023-06-03T08:07:20.630Z,99.10
2023-06-03T08:09:52.612Z,98.70
2023-06-03T08:12:23.383Z,98.00
2023-06-03T08:14:51.403Z,98.00
2023-06-03T08:17:26.792Z,98.00
2023-06-03T08:19:54.854Z,98.10
2023-06-03T08:22:38.019Z,97.70
2023-06-03T08:25:08.517Z,98.70
2023-06-03T08:27:38.474Z,97.80
2023-06-03T08:30:07.863Z,97.70
2023-06-03T08:32:40.126Z,97.20
2023-06-03T08:35:09.246Z,97.90
2023-06-03T08:37:37.433Z,97.60
2023-06-03T08:40:08.977Z,97.10
2023-06-03T08:42:43.396Z,96.30
2023-06-03T08:45:12.424Z,96.50
2023-06-03T08:47:58.702Z,96.30
2023-06-03T08:50:29.483Z,97.00
2023-06-03T08:52:58.968Z,96.50
2023-06-03T08:55:29.081Z,97.10
2023-06-03T08:58:05.072Z,96.00
2023-06-03T09:00:34.286Z,96.00
2023-06-03T09:03:03.643Z,96.40
2023-06-03T09:05:34.152Z,95.80
2023-06-03T09:08:02.522Z,96.30
2023-06-03T09:10:33.859Z,95.80
2023-06-03T09:13:04.094Z,95.70
2023-06-03T09:15:32.478Z,95.40
2023-06-03T09:18:00.705Z,94.90
2023-06-03T09:20:28.883Z,95.90
2023-06-03T09:22:58.797Z,95.30
2023-06-03T09:25:27.044Z,95.10
2023-06-03T09:27:57.094Z,93.90
2023-06-03T09:30:25.114Z,94.40
2023-06-03T09:32:53.262Z,94.50
2023-06-03T09:35:22.072Z,95.00
2023-06-03T09:38:00.551Z,94.90
2023-06-03T09:40:30.538Z,94.70
2023-06-03T09:43:00.517Z,94.60
2023-06-03T09:45:30.759Z,94.20
2023-06-03T09:47:58.894Z,93.60
2023-06-03T09:50:29.178Z,93.80
2023-06-03T09:52:57.819Z,94.10
2023-06-03T09:55:33.903Z,93.20
2023-06-03T09:58:05.488Z,93.60
2023-06-03T10:00:49.865Z,92.80
2023-06-03T10:03:20.948Z,93.50
2023-06-03T10:05:49.110Z,92.90
2023-06-03T10:08:28.843Z,93.40
2023-06-03T10:10:58.171Z,94.00
2023-06-03T10:13:28.979Z,93.70
2023-06-03T10:15:59.716Z,93.30
2023-06-03T10:18:39.121Z,93.20
2023-06-03T10:21:08.678Z,92.50
2023-06-03T10:23:40.076Z,92.30
2023-06-03T10:26:09.328Z,93.00
2023-06-03T10:28:39.718Z,91.90
2023-06-03T10:31:09.054Z,92.60
2023-06-03T10:33:38.848Z,93.50
2023-06-03T10:36:08.778Z,91.60
2023-06-03T10:38:38.287Z,91.70
2023-06-03T10:41:06.972Z,92.70
2023-06-03T10:43:36.400Z,91.60
2023-06-03T10:46:06.593Z,91.70
2023-06-03T10:48:38.727Z,92.50
2023-06-03T10:51:21.637Z,91.70
2023-06-03T10:54:05.122Z,91.60
2023-06-03T10:56:40.387Z,91.00
2023-06-03T10:59:14.110Z,91.20
2023-06-03T11:02:03.122Z,91.60
2023-06-03T11:04:32.624Z,91.40
2023-06-03T11:07:01.460Z,90.20
2023-06-03T11:09:34.560Z,90.40
2023-06-03T11:12:13.781Z,90.90
2023-06-03T11:14:58.156Z,91.30
2023-06-03T11:17:28.568Z,90.80
2023-06-03T11:19:59.370Z,91.10
2023-06-03T11:22:41.990Z,88.60
2023-06-03T11:25:10.901Z,90.40
2023-06-03T11:27:39.047Z,91.00
2023-06-03T11:30:08.474Z,90.40
2023-06-03T11:32:38.863Z,90.30
2023-06-03T11:35:29.752Z,90.70
2023-06-03T11:37:57.805Z,90.60
2023-06-03T11:40:26.234Z,90.50
2023-06-03T11:43:08.153Z,91.10
2023-06-03T11:45:38.842Z,90.20
2023-06-03T11:48:10.719Z,89.50
2023-06-03T11:50:50.790Z,89.80
2023-06-03T11:53:35.565Z,90.60
2023-06-03T11:56:05.481Z,91.60
2023-06-03T11:58:34.093Z,90.20
2023-06-03T12:01:07.917Z,90.00
2023-06-03T12:03:38.280Z,89.10
2023-06-03T12:06:07.284Z,87.90
2023-06-03T12:08:52.952Z,90.10
2023-06-03T12:11:28.731Z,88.00
2023-06-03T12:13:57.024Z,88.20
2023-06-03T12:16:29.488Z,90.00
2023-06-03T12:18:59.288Z,88.60
2023-06-03T12:21:27.384Z,88.10
2023-06-03T12:23:57.754Z,87.90
2023-06-03T12:26:26.682Z,88.90
2023-06-03T12:29:05.998Z,90.00
2023-06-03T12:31:34.139Z,87.30
2023-06-03T12:34:04.205Z,87.30
2023-06-03T12:36:47.218Z,88.50
2023-06-03T12:39:15.674Z,87.20
2023-06-03T12:41:53.180Z,86.80
2023-06-03T12:44:21.803Z,86.60
2023-06-03T12:47:01.880Z,86.60
2023-06-03T12:49:32.122Z,86.00
2023-06-03T12:52:20.924Z,85.20
2023-06-03T12:54:53.568Z,85.60
2023-06-03T12:57:22.300Z,84.70
2023-06-03T13:00:08.362Z,85.40
2023-06-03T13:02:37.699Z,86.40
2023-06-03T13:05:08.479Z,84.00
2023-06-03T13:07:38.014Z,85.40
2023-06-03T13:10:07.529Z,84.70
2023-06-03T13:12:36.545Z,85.10
2023-06-03T13:15:06.087Z,84.50
2023-06-03T13:17:36.896Z,85.90
2023-06-03T13:20:08.312Z,83.70
2023-06-03T13:22:38.063Z,82.60
2023-06-03T13:25:06.697Z,84.30
2023-06-03T13:27:35.556Z,84.30
2023-06-03T13:30:03.644Z,84.70
2023-06-03T13:32:31.756Z,83.90
2023-06-03T13:35:00.455Z,81.50
2023-06-03T13:37:32.986Z,82.20
2023-06-03T13:40:01.169Z,81.90
2023-06-03T13:42:29.457Z,81.90
2023-06-03T13:44:57.583Z,80.40
2023-06-03T13:47:25.706Z,83.00
2023-06-03T13:49:54.448Z,80.80
2023-06-03T13:52:23.578Z,80.60
2023-06-03T13:54:52.928Z,83.80
2023-06-03T13:57:21.084Z,83.50
2023-06-03T13:59:49.136Z,80.60
2023-06-03T14:02:17.401Z,78.70
2023-06-03T14:04:46.050Z,81.10
2023-06-03T14:07:14.088Z,80.10
2023-06-03T14:09:42.065Z,79.00
2023-06-03T14:12:12.816Z,80.70
2023-06-03T14:14:40.854Z,81.40
2023-06-03T14:17:09.144Z,78.10
2023-06-03T14:19:37.119Z,78.40
2023-06-03T14:22:05.618Z,79.40
2023-06-03T14:24:34.812Z,77.60
2023-06-03T14:27:03.511Z,78.60
2023-06-03T14:29:35.323Z,78.10
2023-06-03T14:32:05.074Z,79.40
2023-06-03T14:34:33.500Z,76.40
2023-06-03T14:37:01.680Z,77.60
2023-06-03T14:39:31.403Z,75.70
2023-06-03T14:41:59.912Z,75.70
2023-06-03T14:44:28.041Z,75.70
2023-06-03T14:46:57.596Z,76.60
2023-06-03T14:49:26.564Z,78.20
2023-06-03T14:51:54.770Z,75.10
2023-06-03T14:54:23.146Z,74.60
2023-06-03T14:56:51.321Z,74.20
2023-06-03T14:59:19.425Z,75.40
2023-06-03T15:01:47.669Z,74.90
2023-06-03T15:04:17.312Z,73.20
2023-06-03T15:06:46.741Z,73.90
2023-06-03T15:09:14.772Z,75.00
2023-06-03T15:11:42.899Z,73.80
2023-06-03T15:14:10.964Z,73.50
2023-06-03T15:16:39.207Z,73.70
2023-06-03T15:19:08.662Z,73.60
2023-06-03T15:21:38.130Z,73.30
2023-06-03T15:24:06.785Z,72.70
2023-06-03T15:26:34.941Z,71.30
2023-06-03T15:29:03.609Z,69.60
2023-06-03T15:31:31.728Z,69.70
2023-06-03T15:34:00.125Z,69.30
2023-06-03T15:36:28.258Z,69.80
2023-06-03T15:38:57.901Z,71.50
2023-06-03T15:41:28.335Z,71.50
2023-06-03T15:43:56.498Z,71.50
2023-06-03T15:46:25.058Z,71.50
2023-06-03T15:48:53.222Z,71.70
2023-06-03T15:51:21.470Z,70.90
2023-06-03T15:53:49.546Z,69.10
2023-06-03T15:56:20.456Z,70.80
2023-06-03T15:58:49.306Z,70.40
2023-06-03T16:01:17.687Z,70.70
2023-06-03T16:03:48.209Z,71.50
2023-06-03T16:06:16.616Z,73.10
2023-06-03T16:08:44.741Z,73.70
2023-06-03T16:11:12.851Z,71.10
2023-06-03T16:13:43.703Z,71.60
2023-06-03T16:16:12.007Z,69.80
2023-06-03T16:21:10.524Z,71.40
2023-06-03T16:23:38.791Z,70.30
2023-06-03T16:26:07.278Z,70.00
2023-06-03T16:28:35.755Z,70.80
2023-06-03T16:31:05.231Z,70.40
2023-06-03T16:33:37.595Z,70.90
2023-06-03T16:36:06.598Z,71.20
2023-06-03T16:38:35.179Z,71.70
2023-06-03T16:41:03.405Z,70.80
2023-06-03T16:43:32.173Z,71.40
2023-06-03T16:46:00.507Z,69.80
2023-06-03T16:48:30.911Z,70.60
2023-06-03T16:50:58.910Z,71.40
2023-06-03T16:53:27.140Z,71.70
2023-06-03T16:55:55.180Z,71.30
2023-06-03T16:58:23.441Z,70.80
2023-06-03T17:00:51.594Z,70.20
2023-06-03T17:03:21.221Z,69.50
2023-06-03T17:05:55.167Z,68.40
2023-06-03T17:08:23.534Z,68.80
2023-06-03T17:10:51.773Z,68.40
2023-06-03T17:13:20.186Z,68.80
2023-06-03T17:15:48.478Z,67.00
2023-06-03T17:18:16.804Z,67.20
2023-06-03T17:20:44.909Z,68.00
2023-06-03T17:23:15.889Z,67.00
2023-06-03T17:25:44.404Z,67.40
2023-06-03T17:28:12.554Z,67.90
2023-06-03T17:30:40.572Z,67.00
2023-06-03T17:33:08.705Z,65.40
2023-06-03T17:35:36.874Z,65.60
2023-06-03T17:38:05.067Z,65.40
2023-06-03T17:40:34.607Z,66.10
2023-06-03T17:43:03.125Z,66.40
2023-06-03T17:45:31.239Z,65.90
2023-06-03T17:47:59.227Z,66.00
2023-06-03T17:50:27.338Z,65.80
2023-06-03T17:52:55.547Z,65.40
2023-06-03T17:55:23.923Z,65.20
2023-06-03T17:57:54.778Z,64.60
2023-06-03T18:00:24.675Z,64.20
2023-06-03T18:02:54.933Z,65.30
2023-06-03T18:05:23.119Z,65.20
2023-06-03T18:07:51.130Z,66.30
2023-06-03T18:10:19.387Z,66.50
2023-06-03T18:12:47.713Z,66.30
2023-06-03T18:15:17.408Z,66.90
2023-06-03T18:17:45.578Z,66.80
2023-06-03T18:20:13.761Z,67.00
2023-06-03T18:22:44.147Z,68.10
2023-06-03T18:25:12.750Z,68.10
2023-06-03T18:27:40.890Z,68.60
2023-06-03T18:30:10.293Z,68.20
2023-06-03T18:32:41.725Z,69.20
2023-06-03T18:35:11.159Z,69.50
2023-06-03T18:37:40.115Z,69.70
2023-06-03T18:40:09.715Z,70.40
2023-06-03T18:42:37.803Z,71.00
2023-06-03T18:45:06.712Z,70.70
2023-06-03T18:47:34.840Z,70.70
2023-06-03T18:50:04.504Z,71.30
2023-06-03T18:52:32.668Z,71.80
2023-06-03T18:55:00.898Z,72.10
2023-06-03T18:57:29.523Z,72.10
2023-06-03T18:59:57.844Z,72.00
2023-06-03T19:02:26.266Z,72.50
2023-06-03T19:04:54.451Z,73.10
2023-06-03T19:07:24.912Z,73.30
2023-06-03T19:09:53.008Z,73.30
2023-06-03T19:12:21.077Z,74.20
2023-06-03T19:14:49.281Z,74.00
2023-06-03T19:17:18.289Z,74.60
2023-06-03T19:19:46.453Z,74.70
2023-06-03T19:22:14.822Z,75.60
2023-06-03T19:24:44.517Z,75.80
2023-06-03T19:27:13.204Z,76.60
2023-06-03T19:29:41.456Z,76.20
2023-06-03T19:32:10.731Z,76.60
2023-06-03T19:34:38.858Z,76.30
2023-06-03T19:37:09.038Z,76.60
2023-06-03T19:39:37.271Z,76.90
2023-06-03T19:42:07.834Z,77.10
2023-06-03T19:44:36.290Z,77.80
2023-06-03T19:47:04.703Z,77.60
2023-06-03T19:49:33.122Z,77.90
2023-06-03T19:52:02.233Z,78.40
2023-06-03T19:54:31.477Z,78.30
2023-06-03T19:57:01.370Z,78.90
2023-06-03T19:59:30.918Z,79.10
2023-06-03T20:01:59.288Z,79.70
2023-06-03T20:04:27.337Z,79.70
2023-06-03T20:06:55.525Z,80.00
2023-06-03T20:09:23.833Z,80.00
2023-06-03T20:11:52.501Z,80.40
2023-06-03T20:14:20.619Z,80.80
2023-06-03T20:16:50.009Z,81.30
2023-06-03T20:19:18.138Z,81.50
2023-06-03T20:21:46.273Z,81.90
2023-06-03T20:24:14.486Z,82.30
2023-06-03T20:26:45.512Z,82.50
2023-06-03T20:29:14.728Z,83.20
2023-06-03T20:31:42.810Z,83.10
2023-06-03T20:34:12.361Z,83.80
2023-06-03T20:36:41.160Z,83.90
2023-06-03T20:39:09.224Z,84.40
2023-06-03T20:41:37.416Z,84.70
2023-06-03T20:44:05.463Z,85.00
2023-06-03T20:46:33.582Z,85.40
2023-06-03T20:49:01.771Z,85.80
2023-06-03T20:51:31.319Z,85.90
2023-06-03T20:54:01.714Z,86.10
2023-06-03T20:56:29.782Z,86.80
2023-06-03T20:58:57.880Z,85.80
2023-06-03T21:01:26.059Z,86.60
2023-06-03T21:03:54.360Z,85.60
2023-06-03T21:06:22.623Z,85.10
2023-06-03T21:08:52.395Z,85.30
2023-06-03T21:11:21.187Z,85.50
2023-06-03T21:13:49.335Z,85.50
2023-06-03T21:16:17.414Z,85.20
2023-06-03T21:18:45.565Z,85.00
2023-06-03T21:21:13.704Z,85.10
2023-06-03T21:23:42.023Z,85.10
2023-06-03T21:26:11.584Z,84.30
2023-06-03T21:28:39.729Z,84.80
2023-06-03T21:31:08.247Z,85.00
2023-06-03T21:33:36.570Z,85.70
2023-06-03T21:36:05.092Z,85.80
2023-06-03T21:38:33.153Z,86.50
2023-06-03T21:41:01.277Z,86.70
2023-06-03T21:43:31.168Z,86.70
2023-06-03T21:45:59.406Z,87.20
2023-06-03T21:48:27.563Z,87.40
2023-06-03T21:50:55.821Z,87.40
2023-06-03T21:53:24.009Z,87.10
2023-06-03T21:55:52.408Z,87.10
2023-06-03T21:58:21.065Z,87.00
2023-06-03T22:00:50.524Z,86.10
2023-06-03T22:03:18.672Z,86.30
2023-06-03T22:05:47.099Z,86.00
2023-06-03T22:08:15.227Z,85.30
2023-06-03T22:10:43.230Z,85.00
2023-06-03T22:13:12.049Z,85.40
2023-06-03T22:15:40.432Z,85.10
2023-06-03T22:18:09.959Z,84.80
2023-06-03T22:20:38.101Z,84.70
2023-06-03T22:23:07.701Z,84.50
2023-06-03T22:25:36.694Z,84.60
2023-06-03T22:28:06.012Z,84.20
2023-06-03T22:30:34.240Z,83.60
2023-06-03T22:33:02.511Z,83.30
2023-06-03T22:35:32.095Z,83.20
2023-06-03T22:38:03.176Z,83.20
2023-06-03T22:40:31.418Z,82.20
2023-06-03T22:42:59.573Z,82.30
2023-06-03T22:45:30.808Z,82.80
2023-06-03T22:47:59.226Z,82.10
2023-06-03T22:50:27.573Z,82.10
2023-06-03T22:52:56.962Z,82.00
2023-06-03T22:55:26.014Z,80.80
2023-06-03T22:57:54.378Z,81.00
2023-06-03T23:00:24.184Z,81.10
2023-06-03T23:02:52.542Z,81.10
2023-06-03T23:05:20.961Z,81.10
2023-06-03T23:07:49.192Z,80.40
2023-06-03T23:10:28.817Z,80.00
2023-06-03T23:12:56.956Z,80.40
2023-06-03T23:15:25.053Z,80.20
2023-06-03T23:17:53.343Z,80.20
2023-06-03T23:20:22.537Z,80.40
2023-06-03T23:22:50.864Z,79.80
2023-06-03T23:25:19.026Z,79.90
2023-06-03T23:27:49.728Z,80.40
2023-06-03T23:30:17.910Z,80.60
2023-06-03T23:32:46.234Z,80.60
2023-06-03T23:35:16.128Z,80.40
2023-06-03T23:37:45.965Z,80.20
2023-06-03T23:40:16.172Z,80.60
2023-06-03T23:42:46.057Z,80.50
2023-06-03T23:45:15.926Z,80.40
2023-06-03T23:47:44.046Z,80.80
2023-06-03T23:50:12.683Z,81.30
2023-06-03T23:52:41.000Z,81.50
2023-06-03T23:55:09.899Z,81.50
2023-06-03T23:57:38.027Z,81.90
